createdAt,value
2017-08-24T00:02:27.211Z,71.69
2017-08-24T00:04:55.530Z,71.34
2017-08-24T00:07:23.838Z,71.39
2017-08-24T00:09:52.178Z,71.67
2017-08-24T00:12:20.472Z,71.54
2017-08-24T00:14:48.804Z,71.08
2017-08-24T00:17:17.122Z,70.75
2017-08-24T00:19:45.456Z,70.65
2017-08-24T00:22:13.761Z,70.35
2017-08-24T00:24:42.094Z,70.26
2017-08-24T00:27:10.414Z,70.04
2017-08-24T00:29:38.711Z,70.10
2017-08-24T00:32:07.017Z,69.97
2017-08-24T00:34:35.321Z,70.14
2017-08-24T00:37:03.632Z,70.16
2017-08-24T00:39:31.940Z,70.14
2017-08-24T00:42:00.968Z,70.11
2017-08-24T00:44:29.290Z,70.01
2017-08-24T00:46:57.595Z,70.25
2017-08-24T00:49:25.988Z,70.28
2017-08-24T00:51:54.302Z,70.58
2017-08-24T00:54:22.613Z,70.36
2017-08-24T00:56:50.931Z,70.57
2017-08-24T00:59:19.411Z,70.79
2017-08-24T01:01:47.709Z,71.22
2017-08-24T01:04:16.037Z,71.41
2017-08-24T01:06:44.359Z,71.61
2017-08-24T01:09:12.669Z,72.08
2017-08-24T01:11:40.992Z,72.12
2017-08-24T01:14:09.293Z,72.66
2017-08-24T01:16:37.593Z,72.66
2017-08-24T01:19:05.895Z,73.09
2017-08-24T01:21:34.202Z,73.08
2017-08-24T01:24:02.510Z,73.85
2017-08-24T01:26:30.826Z,73.77
2017-08-24T01:28:59.142Z,73.13
2017-08-24T01:31:27.483Z,73.32
2017-08-24T01:33:55.793Z,73.19
2017-08-24T01:36:24.103Z,73.32
2017-08-24T01:38:52.418Z,73.30
2017-08-24T01:41:20.747Z,73.10
2017-08-24T01:43:49.066Z,72.94
2017-08-24T01:46:24.202Z,72.65
2017-08-24T01:48:52.560Z,72.57
2017-08-24T01:51:20.882Z,72.61
2017-08-24T01:53:49.215Z,72.61
2017-08-24T01:56:17.526Z,72.59
2017-08-24T01:58:45.892Z,72.42
2017-08-24T02:01:14.189Z,72.51
2017-08-24T02:03:42.531Z,72.49
2017-08-24T02:06:10.855Z,73.64
2017-08-24T02:08:39.170Z,73.97
2017-08-24T02:11:07.481Z,74.57
2017-08-24T02:13:35.777Z,74.26
2017-08-24T02:16:04.080Z,74.57
2017-08-24T02:18:32.446Z,74.50
2017-08-24T02:21:00.774Z,74.50
2017-08-24T02:23:29.081Z,73.99
2017-08-24T02:25:57.377Z,74.21
2017-08-24T02:28:25.685Z,74.50
2017-08-24T02:30:53.982Z,75.08
2017-08-24T02:33:22.301Z,74.99
2017-08-24T02:35:58.433Z,75.10
2017-08-24T02:38:26.749Z,74.66
2017-08-24T02:40:55.059Z,74.68
2017-08-24T02:43:23.376Z,74.23
2017-08-24T02:45:51.784Z,74.26
2017-08-24T02:48:20.113Z,74.35
2017-08-24T02:50:48.429Z,74.43
2017-08-24T02:53:16.741Z,74.42
2017-08-24T02:55:45.069Z,74.92
2017-08-24T02:58:13.380Z,75.24
2017-08-24T03:00:41.703Z,75.06
2017-08-24T03:03:10.033Z,74.95
2017-08-24T03:05:38.361Z,74.64
2017-08-24T03:08:06.677Z,74.55
2017-08-24T03:10:35.012Z,74.35
2017-08-24T03:13:03.344Z,74.37
2017-08-24T03:15:31.654Z,74.26
2017-08-24T03:17:59.965Z,74.40
2017-08-24T03:20:28.272Z,74.46
2017-08-24T03:22:56.600Z,74.65
2017-08-24T03:25:24.925Z,74.92
2017-08-24T03:27:53.238Z,75.04
2017-08-24T03:30:21.581Z,74.94
2017-08-24T03:32:49.936Z,75.14
2017-08-24T03:35:18.259Z,75.38
2017-08-24T03:37:46.591Z,75.19
2017-08-24T03:40:14.916Z,75.22
2017-08-24T03:42:43.236Z,75.66
2017-08-24T03:45:11.571Z,75.66
2017-08-24T03:47:39.898Z,75.53
2017-08-24T03:50:08.218Z,75.90
2017-08-24T03:52:36.538Z,76.11
2017-08-24T03:55:04.870Z,75.92
2017-08-24T03:57:33.179Z,75.96
2017-08-24T04:00:01.507Z,75.61
2017-08-24T04:02:29.836Z,75.41
2017-08-24T04:04:58.245Z,75.51
2017-08-24T04:07:26.582Z,75.90
2017-08-24T04:09:54.892Z,75.92
2017-08-24T04:12:23.222Z,76.53
2017-08-24T04:14:51.538Z,76.63
2017-08-24T04:17:19.879Z,76.38
2017-08-24T04:19:48.192Z,76.34
2017-08-24T04:22:16.544Z,76.27
2017-08-24T04:24:44.873Z,75.83
2017-08-24T04:27:13.235Z,75.67
2017-08-24T04:29:41.593Z,75.56
2017-08-24T04:32:09.935Z,75.11
2017-08-24T04:34:38.261Z,74.88
2017-08-24T04:37:06.586Z,74.53
2017-08-24T04:39:34.925Z,74.24
2017-08-24T04:42:03.233Z,74.07
2017-08-24T04:44:31.814Z,73.85
2017-08-24T04:47:00.134Z,73.77
2017-08-24T04:49:28.470Z,74.13
2017-08-24T04:51:56.810Z,73.98
2017-08-24T04:54:25.121Z,73.92
2017-08-24T04:56:53.445Z,73.66
2017-08-24T04:59:21.780Z,73.49
2017-08-24T05:01:50.102Z,73.44
2017-08-24T05:04:18.409Z,73.12
2017-08-24T05:06:46.759Z,72.51
2017-08-24T05:09:15.070Z,72.67
2017-08-24T05:11:43.379Z,71.99
2017-08-24T05:14:11.698Z,72.21
2017-08-24T05:16:40.362Z,72.20
2017-08-24T05:19:08.749Z,71.87
2017-08-24T05:21:37.066Z,71.15
2017-08-24T05:24:05.381Z,70.30
2017-08-24T05:26:33.717Z,70.07
2017-08-24T05:29:02.054Z,70.22
2017-08-24T05:31:30.365Z,69.28
2017-08-24T05:33:58.678Z,68.48
2017-08-24T05:36:27.013Z,68.47
2017-08-24T05:38:55.328Z,68.18
2017-08-24T05:41:23.641Z,67.93
2017-08-24T05:43:51.962Z,66.99
2017-08-24T05:46:20.285Z,66.32
2017-08-24T05:48:48.598Z,65.98
2017-08-24T05:51:16.930Z,66.09
2017-08-24T05:53:45.242Z,65.88
2017-08-24T05:56:13.555Z,64.90
2017-08-24T05:58:41.879Z,64.52
2017-08-24T06:01:11.098Z,64.32
2017-08-24T06:03:39.410Z,63.95
2017-08-24T06:06:07.746Z,63.60
2017-08-24T06:08:36.067Z,62.77
2017-08-24T06:11:04.385Z,64.30
2017-08-24T06:13:32.710Z,63.41
2017-08-24T06:16:01.025Z,63.57
2017-08-24T06:18:29.334Z,63.63
2017-08-24T06:20:57.659Z,63.26
2017-08-24T06:23:25.978Z,62.67
2017-08-24T06:25:54.304Z,61.96
2017-08-24T06:28:22.623Z,62.52
2017-08-24T06:30:50.938Z,61.41
2017-08-24T06:33:19.253Z,61.56
2017-08-24T06:35:47.595Z,61.41
2017-08-24T06:38:15.911Z,60.98
2017-08-24T06:40:44.227Z,62.04
2017-08-24T06:43:12.554Z,62.45
2017-08-24T06:45:40.864Z,61.91
2017-08-24T06:48:09.186Z,62.04
2017-08-24T06:50:37.492Z,62.56
2017-08-24T06:53:05.801Z,62.96
2017-08-24T06:55:34.110Z,62.90
2017-08-24T06:58:02.430Z,62.52
2017-08-24T07:00:30.738Z,61.85
2017-08-24T07:02:59.078Z,63.03
2017-08-24T07:05:27.387Z,63.08
2017-08-24T07:07:55.700Z,63.36
2017-08-24T07:10:24.023Z,64.45
2017-08-24T07:12:52.335Z,64.27
2017-08-24T07:15:20.661Z,64.52
2017-08-24T07:17:48.971Z,64.54
2017-08-24T07:20:17.285Z,64.99
2017-08-24T07:22:45.591Z,65.37
2017-08-24T07:25:13.938Z,65.61
2017-08-24T07:27:42.268Z,65.96
2017-08-24T07:30:10.598Z,66.61
2017-08-24T07:32:38.926Z,66.94
2017-08-24T07:35:07.253Z,66.47
2017-08-24T07:37:35.598Z,66.87
2017-08-24T07:40:03.906Z,66.08
2017-08-24T07:42:32.237Z,65.56
2017-08-24T07:45:00.581Z,65.24
2017-08-24T07:47:28.906Z,64.46
2017-08-24T07:49:57.223Z,64.50
2017-08-24T07:52:25.573Z,64.72
2017-08-24T07:54:53.891Z,64.69
2017-08-24T07:57:22.207Z,64.13
2017-08-24T07:59:50.559Z,65.04
2017-08-24T08:02:18.875Z,66.63
2017-08-24T08:04:47.185Z,66.19
2017-08-24T08:07:15.530Z,67.06
2017-08-24T08:09:43.848Z,67.14
2017-08-24T08:12:12.161Z,68.93
2017-08-24T08:14:40.509Z,70.54
2017-08-24T08:17:08.835Z,77.37
2017-08-24T08:19:37.150Z,80.71
2017-08-24T08:22:05.497Z,82.50
2017-08-24T08:24:33.808Z,82.85
2017-08-24T08:27:02.127Z,83.86
2017-08-24T08:29:30.469Z,83.90
2017-08-24T08:31:58.778Z,84.34
2017-08-24T08:34:27.086Z,84.37
2017-08-24T08:36:55.434Z,84.04
2017-08-24T08:39:23.742Z,84.46
2017-08-24T08:41:52.057Z,84.16
2017-08-24T08:44:20.409Z,82.51
2017-08-24T08:46:48.729Z,82.66
2017-08-24T08:49:17.040Z,82.46
2017-08-24T08:51:45.397Z,81.50
2017-08-24T08:54:13.709Z,81.03
2017-08-24T08:56:42.027Z,80.63
2017-08-24T08:59:10.366Z,79.82
2017-08-24T09:01:38.690Z,78.35
2017-08-24T09:04:07.001Z,76.34
2017-08-24T09:06:35.355Z,77.51
2017-08-24T09:09:03.679Z,78.23
2017-08-24T09:11:32.005Z,77.25
2017-08-24T09:14:00.332Z,78.43
2017-08-24T09:16:28.669Z,78.91
2017-08-24T09:18:56.998Z,76.63
2017-08-24T09:21:25.326Z,74.70
2017-08-24T09:23:53.645Z,74.54
2017-08-24T09:26:21.953Z,75.86
2017-08-24T09:28:50.276Z,74.33
2017-08-24T09:31:18.598Z,74.10
2017-08-24T09:33:46.925Z,71.68
2017-08-24T09:36:15.242Z,69.81
2017-08-24T09:38:43.583Z,67.60
2017-08-24T09:41:11.905Z,66.06
2017-08-24T09:43:40.238Z,63.98
2017-08-24T09:46:08.551Z,64.58
2017-08-24T09:48:36.893Z,66.33
2017-08-24T09:51:05.211Z,66.72
2017-08-24T09:53:33.538Z,67.87
2017-08-24T09:56:01.851Z,66.90
2017-08-24T09:58:30.181Z,63.99
2017-08-24T10:00:58.490Z,63.38
2017-08-24T10:03:26.878Z,61.07
2017-08-24T10:05:55.198Z,58.15
2017-08-24T10:08:23.513Z,59.94
2017-08-24T10:10:51.840Z,59.88
2017-08-24T10:13:20.150Z,60.30
2017-08-24T10:15:48.474Z,62.79
2017-08-24T10:18:16.798Z,64.56
2017-08-24T10:20:45.138Z,66.89
2017-08-24T10:23:13.454Z,66.77
2017-08-24T10:25:41.787Z,66.98
2017-08-24T10:28:10.110Z,68.42
2017-08-24T10:30:38.467Z,67.92
2017-08-24T10:33:06.766Z,69.17
2017-08-24T10:35:35.094Z,71.23
2017-08-24T10:38:03.412Z,71.25
2017-08-24T10:40:31.742Z,71.04
2017-08-24T10:43:00.068Z,72.26
2017-08-24T10:45:28.398Z,72.03
2017-08-24T10:47:56.742Z,71.82
2017-08-24T10:50:25.073Z,70.86
2017-08-24T10:52:53.394Z,70.28
2017-08-24T10:55:21.723Z,70.54
2017-08-24T10:57:50.054Z,70.44
2017-08-24T11:00:18.394Z,70.64
2017-08-24T11:02:46.709Z,68.93
2017-08-24T11:05:15.031Z,68.11
2017-08-24T11:07:43.349Z,68.98
2017-08-24T11:10:11.686Z,70.83
2017-08-24T11:12:40.004Z,69.11
2017-08-24T11:15:08.314Z,66.14
2017-08-24T11:17:36.634Z,66.03
2017-08-24T11:20:04.947Z,64.42
2017-08-24T11:22:33.258Z,65.14
2017-08-24T11:25:01.582Z,67.05
2017-08-24T11:27:29.898Z,67.20
2017-08-24T11:29:58.219Z,66.17
2017-08-24T11:32:26.546Z,66.33
2017-08-24T11:34:54.857Z,68.66
2017-08-24T11:37:23.178Z,70.21
2017-08-24T11:39:51.486Z,70.11
2017-08-24T11:42:19.807Z,70.28
2017-08-24T11:44:48.130Z,70.34
2017-08-24T11:47:16.458Z,70.53
2017-08-24T11:49:44.768Z,70.28
2017-08-24T11:52:13.081Z,70.84
2017-08-24T11:54:41.389Z,71.27
2017-08-24T11:57:09.722Z,71.21
2017-08-24T11:59:38.026Z,70.83
2017-08-24T12:02:06.358Z,69.31
2017-08-24T12:04:34.667Z,67.48
2017-08-24T12:07:02.991Z,66.08
2017-08-24T12:09:31.308Z,63.97
2017-08-24T12:11:59.629Z,62.22
2017-08-24T12:14:27.942Z,61.63
2017-08-24T12:16:56.274Z,60.73
2017-08-24T12:19:24.588Z,56.08
2017-08-24T12:21:52.905Z,56.04
2017-08-24T12:24:21.227Z,54.34
2017-08-24T12:26:49.539Z,55.33
2017-08-24T12:29:17.853Z,56.95
2017-08-24T12:31:46.158Z,58.28
2017-08-24T12:34:14.474Z,59.19
2017-08-24T12:36:42.842Z,60.27
2017-08-24T12:39:11.158Z,60.64
2017-08-24T12:41:39.465Z,58.27
2017-08-24T12:44:07.783Z,57.07
2017-08-24T12:46:36.087Z,59.82
2017-08-24T12:49:04.407Z,58.80
2017-08-24T12:51:32.718Z,57.62
2017-08-24T12:54:01.030Z,57.39
2017-08-24T12:56:29.334Z,58.36
2017-08-24T12:58:58.655Z,58.25
2017-08-24T13:01:26.968Z,60.04
2017-08-24T13:03:55.287Z,58.78
2017-08-24T13:06:23.593Z,55.66
2017-08-24T13:08:51.933Z,54.71
2017-08-24T13:11:20.251Z,54.59
2017-08-24T13:13:48.590Z,56.66
2017-08-24T13:16:16.936Z,54.76
2017-08-24T13:18:45.258Z,52.68
2017-08-24T13:21:13.577Z,51.93
2017-08-24T13:23:41.919Z,49.19
2017-08-24T13:26:10.233Z,47.29
2017-08-24T13:28:38.574Z,46.53
2017-08-24T13:31:06.890Z,46.72
2017-08-24T13:33:35.207Z,46.15
2017-08-24T13:36:03.534Z,46.77
2017-08-24T13:38:32.087Z,46.20
2017-08-24T13:41:00.663Z,46.74
2017-08-24T13:43:28.977Z,49.40
2017-08-24T13:45:57.294Z,50.26
2017-08-24T13:48:25.610Z,47.85
2017-08-24T13:50:53.927Z,47.74
2017-08-24T13:53:22.241Z,47.81
2017-08-24T13:55:50.578Z,49.26
2017-08-24T13:58:18.897Z,49.24
2017-08-24T14:00:47.231Z,50.19
2017-08-24T14:03:15.538Z,51.24
2017-08-24T14:05:43.859Z,52.32
2017-08-24T14:08:12.167Z,54.27
2017-08-24T14:10:40.488Z,53.21
2017-08-24T14:13:08.822Z,52.93
2017-08-24T14:15:37.143Z,52.73
2017-08-24T14:18:05.485Z,52.51
2017-08-24T14:20:33.802Z,52.70
2017-08-24T14:23:02.110Z,52.74
2017-08-24T14:25:30.426Z,54.00
2017-08-24T14:27:58.734Z,53.77
2017-08-24T14:30:27.058Z,51.68
2017-08-24T14:32:55.380Z,51.42
2017-08-24T14:35:23.711Z,50.98
2017-08-24T14:37:52.029Z,50.71
2017-08-24T14:40:20.337Z,48.90
2017-08-24T14:42:48.650Z,48.00
2017-08-24T14:45:16.981Z,47.63
2017-08-24T14:47:45.301Z,47.08
2017-08-24T14:50:13.607Z,47.24
2017-08-24T14:52:41.925Z,47.07
2017-08-24T14:55:10.234Z,47.39
2017-08-24T14:57:38.557Z,47.65
2017-08-24T15:00:06.874Z,49.07
2017-08-24T15:02:35.197Z,50.34
2017-08-24T15:05:03.506Z,51.21
2017-08-24T15:07:31.826Z,53.15
2017-08-24T15:10:00.142Z,51.58
2017-08-24T15:12:28.458Z,49.33
2017-08-24T15:14:56.780Z,48.27
2017-08-24T15:17:25.097Z,46.64
2017-08-24T15:19:53.418Z,47.08
2017-08-24T15:22:21.841Z,46.52
2017-08-24T15:24:50.154Z,45.78
2017-08-24T15:27:18.478Z,45.37
2017-08-24T15:29:46.789Z,45.62
2017-08-24T15:32:15.105Z,45.85
2017-08-24T15:34:43.419Z,46.07
2017-08-24T15:37:11.748Z,45.38
2017-08-24T15:39:40.053Z,45.24
2017-08-24T15:42:08.382Z,47.03
2017-08-24T15:44:36.705Z,47.46
2017-08-24T15:47:05.039Z,48.17
2017-08-24T15:49:33.346Z,49.04
2017-08-24T15:52:01.653Z,49.70
2017-08-24T15:54:29.973Z,48.86
2017-08-24T15:56:58.389Z,48.48
2017-08-24T15:59:26.706Z,48.31
2017-08-24T16:01:55.018Z,48.39
2017-08-24T16:04:23.338Z,47.84
2017-08-24T16:06:51.647Z,47.77
2017-08-24T16:09:19.965Z,49.01
2017-08-24T16:11:48.270Z,48.70
2017-08-24T16:14:16.607Z,49.58
2017-08-24T16:16:44.938Z,49.90
2017-08-24T16:19:13.286Z,50.69
2017-08-24T16:21:41.597Z,50.78
2017-08-24T16:24:09.914Z,52.25
2017-08-24T16:26:38.221Z,51.55
2017-08-24T16:29:06.535Z,52.09
2017-08-24T16:31:34.847Z,52.71
2017-08-24T16:34:03.170Z,53.99
2017-08-24T16:36:31.476Z,55.29
2017-08-24T16:38:59.801Z,55.71
2017-08-24T16:41:28.126Z,56.45
2017-08-24T16:43:56.445Z,56.68
2017-08-24T16:46:24.753Z,56.87
2017-08-24T16:48:53.081Z,56.87
2017-08-24T16:51:21.397Z,57.62
2017-08-24T16:53:49.734Z,58.33
2017-08-24T16:56:18.049Z,58.54
2017-08-24T16:58:46.349Z,58.75
2017-08-24T17:01:14.666Z,59.23
2017-08-24T17:03:42.971Z,60.17
2017-08-24T17:06:11.287Z,60.83
2017-08-24T17:08:39.634Z,61.49
2017-08-24T17:11:08.249Z,61.96
2017-08-24T17:13:36.759Z,62.57
2017-08-24T17:16:05.089Z,63.11
2017-08-24T17:18:33.394Z,63.55
2017-08-24T17:21:01.718Z,63.57
2017-08-24T17:23:30.034Z,64.12
2017-08-24T17:25:58.365Z,64.10
2017-08-24T17:28:26.685Z,63.94
2017-08-24T17:30:55.008Z,63.91
2017-08-24T17:33:23.326Z,63.91
2017-08-24T17:35:51.850Z,64.42
2017-08-24T17:38:20.166Z,64.83
2017-08-24T17:40:48.490Z,65.17
2017-08-24T17:43:16.868Z,65.40
2017-08-24T17:45:45.199Z,65.19
2017-08-24T17:48:13.505Z,65.20
2017-08-24T17:50:41.860Z,65.33
2017-08-24T17:53:10.188Z,65.48
2017-08-24T17:58:06.211Z,65.98
2017-08-24T18:00:34.547Z,66.00
2017-08-24T18:03:02.861Z,66.72
2017-08-24T18:05:31.202Z,66.93
2017-08-24T18:07:59.518Z,67.16
2017-08-24T18:10:27.829Z,67.69
2017-08-24T18:12:56.138Z,67.94
2017-08-24T18:15:24.450Z,68.32
2017-08-24T18:17:53.574Z,68.65
2017-08-24T18:20:21.883Z,68.93
2017-08-24T18:22:50.199Z,69.23
2017-08-24T18:25:18.504Z,69.92
2017-08-24T18:27:46.821Z,70.32
2017-08-24T18:30:15.129Z,70.35
2017-08-24T18:32:43.455Z,70.55
2017-08-24T18:35:11.770Z,71.11
2017-08-24T18:37:40.111Z,72.19
2017-08-24T18:40:08.422Z,72.83
2017-08-24T18:42:36.775Z,72.50
2017-08-24T18:45:05.167Z,72.79
2017-08-24T18:47:34.058Z,72.98
2017-08-24T18:50:02.597Z,73.50
2017-08-24T18:52:31.366Z,73.76
2017-08-24T18:55:00.790Z,73.91
2017-08-24T18:57:29.335Z,74.07
2017-08-24T18:59:57.661Z,74.46
2017-08-24T19:02:26.029Z,74.57
2017-08-24T19:04:54.358Z,75.16
2017-08-24T19:07:22.679Z,75.18
2017-08-24T19:09:51.010Z,75.08
2017-08-24T19:12:19.365Z,75.06
2017-08-24T19:14:47.698Z,75.36
2017-08-24T19:17:16.036Z,74.95
2017-08-24T19:19:44.373Z,75.48
2017-08-24T19:22:12.694Z,75.48
2017-08-24T19:24:41.011Z,76.03
2017-08-24T19:27:09.328Z,76.76
2017-08-24T19:29:37.646Z,77.21
2017-08-24T19:32:05.956Z,77.08
2017-08-24T19:34:34.337Z,77.69
2017-08-24T19:37:02.658Z,78.00
2017-08-24T19:39:30.984Z,78.04
2017-08-24T19:41:59.291Z,77.86
2017-08-24T19:44:27.690Z,78.75
2017-08-24T19:46:55.997Z,79.20
2017-08-24T19:49:24.323Z,79.16
2017-08-24T19:51:52.642Z,79.55
2017-08-24T19:54:20.965Z,79.73
2017-08-24T19:56:49.274Z,79.88
2017-08-24T19:59:17.618Z,80.07
2017-08-24T20:01:45.932Z,80.05
2017-08-24T20:04:14.253Z,80.74
2017-08-24T20:06:42.564Z,80.48
2017-08-24T20:09:10.881Z,80.41
2017-08-24T20:11:39.194Z,80.27
2017-08-24T20:14:07.504Z,80.58
2017-08-24T20:16:35.814Z,81.18
2017-08-24T20:19:04.148Z,81.30
2017-08-24T20:21:32.468Z,81.78
2017-08-24T20:24:00.822Z,81.60
2017-08-24T20:26:29.134Z,81.31
2017-08-24T20:28:57.454Z,81.53
2017-08-24T20:31:25.786Z,81.74
2017-08-24T20:33:54.101Z,81.44
2017-08-24T20:36:22.422Z,81.55
2017-08-24T20:38:50.746Z,81.68
2017-08-24T20:41:19.067Z,81.95
2017-08-24T20:43:47.385Z,82.09
2017-08-24T20:46:15.703Z,82.12
2017-08-24T20:48:44.017Z,82.06
2017-08-24T20:51:12.335Z,82.46
2017-08-24T20:53:40.650Z,81.98
2017-08-24T20:56:08.995Z,82.24
2017-08-24T20:58:37.301Z,82.25
2017-08-24T21:01:05.622Z,82.52
2017-08-24T21:03:33.981Z,82.35
2017-08-24T21:06:02.312Z,82.54
2017-08-24T21:08:30.625Z,82.68
2017-08-24T21:10:58.957Z,82.37
2017-08-24T21:13:27.295Z,82.27
2017-08-24T21:15:55.619Z,82.79
2017-08-24T21:18:23.939Z,82.56
2017-08-24T21:20:52.263Z,82.81
2017-08-24T21:23:20.578Z,82.91
2017-08-24T21:25:48.898Z,82.99
2017-08-24T21:28:17.214Z,83.03
2017-08-24T21:30:45.565Z,83.29
2017-08-24T21:33:13.879Z,83.31
2017-08-24T21:35:42.212Z,83.67
2017-08-24T21:38:10.558Z,83.54
2017-08-24T21:40:38.878Z,83.17
2017-08-24T21:43:08.038Z,83.24
2017-08-24T21:45:36.371Z,83.44
2017-08-24T21:48:04.690Z,83.29
2017-08-24T21:50:33.006Z,83.36
2017-08-24T21:53:01.330Z,83.42
2017-08-24T21:55:29.666Z,82.83
2017-08-24T21:57:58.004Z,82.62
2017-08-24T22:00:26.317Z,82.72
2017-08-24T22:02:54.638Z,83.00
2017-08-24T22:05:22.949Z,83.03
2017-08-24T22:07:51.266Z,83.27
2017-08-24T22:10:19.572Z,83.68
2017-08-24T22:12:47.889Z,83.60
2017-08-24T22:15:16.210Z,83.77
2017-08-24T22:17:44.541Z,83.58
2017-08-24T22:20:12.854Z,83.81
2017-08-24T22:22:41.188Z,83.78
2017-08-24T22:25:09.517Z,83.69
2017-08-24T22:27:37.829Z,84.17
2017-08-24T22:30:06.139Z,84.09
2017-08-24T22:32:34.465Z,84.23
2017-08-24T22:35:02.780Z,84.28
2017-08-24T22:37:31.097Z,84.23
2017-08-24T22:39:59.402Z,84.13
2017-08-24T22:42:27.751Z,84.08
2017-08-24T22:44:56.062Z,83.76
2017-08-24T22:47:24.373Z,83.67
2017-08-24T22:49:52.690Z,83.65
2017-08-24T22:52:20.993Z,83.69
2017-08-24T22:54:54.723Z,83.74
2017-08-24T22:57:28.599Z,83.63
2017-08-24T23:00:02.259Z,83.59
2017-08-24T23:05:37.422Z,83.50
2017-08-24T23:08:05.728Z,83.50
2017-08-24T23:10:34.042Z,83.40
2017-08-24T23:13:02.356Z,83.40
2017-08-24T23:15:30.673Z,83.43
2017-08-24T23:17:58.992Z,83.42
2017-08-24T23:20:27.320Z,83.38
2017-08-24T23:22:55.634Z,83.48
2017-08-24T23:25:23.950Z,83.30
2017-08-24T23:27:52.272Z,83.52
2017-08-24T23:30:20.605Z,83.86
2017-08-24T23:32:48.921Z,83.86
2017-08-24T23:35:17.251Z,84.04
2017-08-24T23:37:45.573Z,83.87
2017-08-24T23:40:13.903Z,84.05
2017-08-24T23:42:42.202Z,84.03
2017-08-24T23:45:10.527Z,84.33
2017-08-24T23:47:38.847Z,84.08
2017-08-24T23:50:07.161Z,84.35
2017-08-24T23:52:35.478Z,84.26
2017-08-24T23:55:03.794Z,84.35
2017-08-24T23:57:32.106Z,84.33
